Dudinka, Russia
Current Conditions -  °F | °C
As of 3:30 AM on Monday 22 Dec 2014 (Local Time) from USNN Reporting Station
Light Snow Light Snow  
Wind Chill: -15°   Ceiling: 900
Heat Index: -6°   Visibility: 5mi
Dew Point: -8°   Wind: 20mph
Humidity: 86%   Direction: 200°SSW
Pressure: 29.62"   Gusts: NA
Location:  69.41°N, 86.18°E
Report Text: USNN 212030Z 20009MPS 8000 -SN OVC009 M06/M08 Q1003 NOSIG RMKQFE748 21410234
Loading
Personal Weather Stations






























Interactive Weather Map New forecast layout! Learn more

10-Day Weather Forecast

Advertisements
Track Severe Weather on mobile